sensor_id;sensor_type;location;lat;lon;timestamp;P1;durP1;ratioP1;P2;durP2;ratioP2
2598;SDS011;1309;48.810;8.954;2023-04-06T00:01:37;15.43;;;9.67;;
2598;SDS011;1309;48.810;8.954;2023-04-06T00:04:09;18.40;;;9.57;;
2598;SDS011;1309;48.810;8.954;2023-04-06T00:06:42;20.17;;;9.80;;
2598;SDS011;1309;48.810;8.954;2023-04-06T00:09:14;14.60;;;9.43;;
2598;SDS011;1309;48.810;8.954;2023-04-06T00:11:48;16.50;;;10.37;;
2598;SDS011;1309;48.810;8.954;2023-04-06T00:14:19;14.53;;;9.50;;
2598;SDS011;1309;48.810;8.954;2023-04-06T00:16:50;12.27;;;9.23;;
2598;SDS011;1309;48.810;8.954;2023-04-06T00:19:24;16.73;;;9.97;;
2598;SDS011;1309;48.810;8.954;2023-04-06T00:21:59;14.50;;;9.80;;
2598;SDS011;1309;48.810;8.954;2023-04-06T00:24:29;11.50;;;7.77;;
2598;SDS011;1309;48.810;8.954;2023-04-06T00:26:57;14.50;;;7.90;;
2598;SDS011;1309;48.810;8.954;2023-04-06T00:29:26;11.13;;;8.53;;
2598;SDS011;1309;48.810;8.954;2023-04-06T00:31:56;19.53;;;9.77;;
2598;SDS011;1309;48.810;8.954;2023-04-06T00:34:25;13.87;;;7.93;;
2598;SDS011;1309;48.810;8.954;2023-04-06T00:36:54;15.30;;;8.20;;
2598;SDS011;1309;48.810;8.954;2023-04-06T00:39:25;12.00;;;8.47;;
2598;SDS011;1309;48.810;8.954;2023-04-06T00:41:57;11.97;;;7.00;;
2598;SDS011;1309;48.810;8.954;2023-04-06T00:44:32;13.10;;;8.83;;
2598;SDS011;1309;48.810;8.954;2023-04-06T00:47:02;16.93;;;9.77;;
2598;SDS011;1309;48.810;8.954;2023-04-06T00:49:32;16.50;;;10.53;;
2598;SDS011;1309;48.810;8.954;2023-04-06T00:52:10;13.50;;;8.97;;
2598;SDS011;1309;48.810;8.954;2023-04-06T00:54:41;14.20;;;9.40;;
2598;SDS011;1309;48.810;8.954;2023-04-06T00:57:12;13.60;;;8.70;;
2598;SDS011;1309;48.810;8.954;2023-04-06T00:59:44;13.53;;;9.03;;
2598;SDS011;1309;48.810;8.954;2023-04-06T01:02:13;17.73;;;10.13;;
2598;SDS011;1309;48.810;8.954;2023-04-06T01:04:42;15.23;;;9.83;;
2598;SDS011;1309;48.810;8.954;2023-04-06T01:07:10;25.87;;;12.40;;
2598;SDS011;1309;48.810;8.954;2023-04-06T01:09:38;21.37;;;12.00;;
2598;SDS011;1309;48.810;8.954;2023-04-06T01:12:08;15.67;;;11.13;;
2598;SDS011;1309;48.810;8.954;2023-04-06T01:14:41;14.73;;;10.17;;
2598;SDS011;1309;48.810;8.954;2023-04-06T01:17:09;14.87;;;9.80;;
2598;SDS011;1309;48.810;8.954;2023-04-06T01:19:40;17.90;;;10.53;;
2598;SDS011;1309;48.810;8.954;2023-04-06T01:22:15;16.27;;;10.50;;
2598;SDS011;1309;48.810;8.954;2023-04-06T01:24:46;20.20;;;13.67;;
2598;SDS011;1309;48.810;8.954;2023-04-06T01:27:19;18.27;;;10.73;;
2598;SDS011;1309;48.810;8.954;2023-04-06T01:29:48;18.10;;;9.47;;
2598;SDS011;1309;48.810;8.954;2023-04-06T01:32:24;14.87;;;9.80;;
2598;SDS011;1309;48.810;8.954;2023-04-06T01:34:53;17.17;;;9.20;;
2598;SDS011;1309;48.810;8.954;2023-04-06T01:37:25;13.60;;;8.37;;
2598;SDS011;1309;48.810;8.954;2023-04-06T01:39:56;13.37;;;8.70;;
2598;SDS011;1309;48.810;8.954;2023-04-06T01:42:29;12.00;;;8.37;;
2598;SDS011;1309;48.810;8.954;2023-04-06T01:44:58;18.47;;;9.57;;
2598;SDS011;1309;48.810;8.954;2023-04-06T01:47:31;15.93;;;10.87;;
2598;SDS011;1309;48.810;8.954;2023-04-06T01:50:04;16.13;;;9.93;;
2598;SDS011;1309;48.810;8.954;2023-04-06T01:52:36;15.37;;;9.40;;
2598;SDS011;1309;48.810;8.954;2023-04-06T01:55:07;14.07;;;8.80;;
2598;SDS011;1309;48.810;8.954;2023-04-06T01:57:36;10.77;;;7.37;;
2598;SDS011;1309;48.810;8.954;2023-04-06T02:00:07;13.30;;;8.63;;
2598;SDS011;1309;48.810;8.954;2023-04-06T02:02:38;15.40;;;8.40;;
2598;SDS011;1309;48.810;8.954;2023-04-06T02:05:10;13.97;;;8.30;;
2598;SDS011;1309;48.810;8.954;2023-04-06T02:07:42;11.50;;;7.47;;
2598;SDS011;1309;48.810;8.954;2023-04-06T02:10:14;14.57;;;8.10;;
2598;SDS011;1309;48.810;8.954;2023-04-06T02:12:47;12.67;;;8.80;;
2598;SDS011;1309;48.810;8.954;2023-04-06T02:15:17;11.33;;;7.40;;
2598;SDS011;1309;48.810;8.954;2023-04-06T02:17:50;13.80;;;8.70;;
2598;SDS011;1309;48.810;8.954;2023-04-06T02:20:19;16.23;;;8.93;;
2598;SDS011;1309;48.810;8.954;2023-04-06T02:22:49;11.27;;;7.40;;
2598;SDS011;1309;48.810;8.954;2023-04-06T02:25:18;14.77;;;9.03;;
2598;SDS011;1309;48.810;8.954;2023-04-06T02:27:47;13.90;;;8.83;;
2598;SDS011;1309;48.810;8.954;2023-04-06T02:30:15;12.93;;;8.00;;
2598;SDS011;1309;48.810;8.954;2023-04-06T02:33:09;17.33;;;8.17;;
2598;SDS011;1309;48.810;8.954;2023-04-06T02:35:40;11.17;;;7.53;;
2598;SDS011;1309;48.810;8.954;2023-04-06T02:38:14;11.03;;;8.00;;
2598;SDS011;1309;48.810;8.954;2023-04-06T02:40:48;13.13;;;7.33;;
2598;SDS011;1309;48.810;8.954;2023-04-06T02:43:20;11.30;;;8.23;;
2598;SDS011;1309;48.810;8.954;2023-04-06T02:46:16;11.70;;;7.83;;
2598;SDS011;1309;48.810;8.954;2023-04-06T02:48:44;12.23;;;7.83;;
2598;SDS011;1309;48.810;8.954;2023-04-06T02:51:14;14.10;;;8.60;;
2598;SDS011;1309;48.810;8.954;2023-04-06T02:53:45;13.23;;;9.17;;
2598;SDS011;1309;48.810;8.954;2023-04-06T02:56:13;15.30;;;7.50;;
2598;SDS011;1309;48.810;8.954;2023-04-06T02:58:50;12.13;;;7.90;;
2598;SDS011;1309;48.810;8.954;2023-04-06T03:01:22;14.67;;;9.10;;
2598;SDS011;1309;48.810;8.954;2023-04-06T03:03:53;15.07;;;8.77;;
2598;SDS011;1309;48.810;8.954;2023-04-06T03:06:29;13.77;;;9.20;;
2598;SDS011;1309;48.810;8.954;2023-04-06T03:09:10;13.17;;;7.63;;
2598;SDS011;1309;48.810;8.954;2023-04-06T03:11:43;15.20;;;8.93;;
2598;SDS011;1309;48.810;8.954;2023-04-06T03:14:14;11.10;;;7.63;;
2598;SDS011;1309;48.810;8.954;2023-04-06T03:16:48;14.27;;;7.97;;
2598;SDS011;1309;48.810;8.954;2023-04-06T03:19:22;12.40;;;8.13;;
2598;SDS011;1309;48.810;8.954;2023-04-06T03:21:50;12.13;;;7.57;;
2598;SDS011;1309;48.810;8.954;2023-04-06T03:24:34;11.67;;;8.07;;
2598;SDS011;1309;48.810;8.954;2023-04-06T03:27:05;14.60;;;8.97;;
2598;SDS011;1309;48.810;8.954;2023-04-06T03:29:36;12.97;;;8.83;;
2598;SDS011;1309;48.810;8.954;2023-04-06T03:32:07;16.17;;;10.03;;
2598;SDS011;1309;48.810;8.954;2023-04-06T03:34:36;10.97;;;7.57;;
2598;SDS011;1309;48.810;8.954;2023-04-06T03:37:07;11.90;;;7.83;;
2598;SDS011;1309;48.810;8.954;2023-04-06T03:39:37;15.43;;;8.80;;
2598;SDS011;1309;48.810;8.954;2023-04-06T03:42:06;16.27;;;8.30;;
2598;SDS011;1309;48.810;8.954;2023-04-06T03:44:35;12.50;;;7.90;;
2598;SDS011;1309;48.810;8.954;2023-04-06T03:47:03;11.17;;;8.20;;
2598;SDS011;1309;48.810;8.954;2023-04-06T03:49:35;12.47;;;8.17;;
2598;SDS011;1309;48.810;8.954;2023-04-06T03:52:05;17.00;;;8.53;;
2598;SDS011;1309;48.810;8.954;2023-04-06T03:54:40;12.20;;;8.73;;
2598;SDS011;1309;48.810;8.954;2023-04-06T03:57:09;13.67;;;8.23;;
2598;SDS011;1309;48.810;8.954;2023-04-06T03:59:44;13.03;;;7.87;;
2598;SDS011;1309;48.810;8.954;2023-04-06T04:02:12;10.87;;;7.10;;
2598;SDS011;1309;48.810;8.954;2023-04-06T04:04:41;13.67;;;8.27;;
2598;SDS011;1309;48.810;8.954;2023-04-06T04:07:16;12.97;;;8.13;;
2598;SDS011;1309;48.810;8.954;2023-04-06T04:09:50;15.40;;;8.43;;
2598;SDS011;1309;48.810;8.954;2023-04-06T04:12:19;10.30;;;6.73;;
2598;SDS011;1309;48.810;8.954;2023-04-06T04:14:51;12.17;;;7.87;;
2598;SDS011;1309;48.810;8.954;2023-04-06T04:17:21;13.20;;;7.23;;
2598;SDS011;1309;48.810;8.954;2023-04-06T04:19:59;14.30;;;8.40;;
2598;SDS011;1309;48.810;8.954;2023-04-06T04:22:30;12.27;;;7.53;;
2598;SDS011;1309;48.810;8.954;2023-04-06T04:25:05;12.70;;;7.87;;
2598;SDS011;1309;48.810;8.954;2023-04-06T04:27:38;13.97;;;8.17;;
2598;SDS011;1309;48.810;8.954;2023-04-06T04:30:06;14.30;;;8.77;;
2598;SDS011;1309;48.810;8.954;2023-04-06T04:32:35;11.70;;;8.10;;
2598;SDS011;1309;48.810;8.954;2023-04-06T04:35:03;15.07;;;8.73;;
2598;SDS011;1309;48.810;8.954;2023-04-06T04:37:33;13.87;;;7.27;;
2598;SDS011;1309;48.810;8.954;2023-04-06T04:40:09;14.63;;;9.13;;
2598;SDS011;1309;48.810;8.954;2023-04-06T04:42:39;13.90;;;7.90;;
2598;SDS011;1309;48.810;8.954;2023-04-06T04:45:08;17.13;;;8.90;;
2598;SDS011;1309;48.810;8.954;2023-04-06T04:47:38;12.03;;;7.37;;
2598;SDS011;1309;48.810;8.954;2023-04-06T04:50:08;12.90;;;7.57;;
2598;SDS011;1309;48.810;8.954;2023-04-06T04:52:42;13.20;;;7.80;;
2598;SDS011;1309;48.810;8.954;2023-04-06T04:55:15;13.70;;;7.50;;
2598;SDS011;1309;48.810;8.954;2023-04-06T04:57:49;10.40;;;7.00;;
2598;SDS011;1309;48.810;8.954;2023-04-06T05:00:20;11.97;;;7.80;;
2598;SDS011;1309;48.810;8.954;2023-04-06T05:02:50;13.70;;;8.90;;
2598;SDS011;1309;48.810;8.954;2023-04-06T05:05:20;14.20;;;8.00;;
2598;SDS011;1309;48.810;8.954;2023-04-06T05:07:53;17.57;;;9.30;;
2598;SDS011;1309;48.810;8.954;2023-04-06T05:10:26;13.60;;;7.70;;
2598;SDS011;1309;48.810;8.954;2023-04-06T05:12:54;13.27;;;8.20;;
2598;SDS011;1309;48.810;8.954;2023-04-06T05:15:22;12.10;;;7.40;;
2598;SDS011;1309;48.810;8.954;2023-04-06T05:17:50;15.50;;;8.40;;
2598;SDS011;1309;48.810;8.954;2023-04-06T05:20:19;12.90;;;7.20;;
2598;SDS011;1309;48.810;8.954;2023-04-06T05:22:56;16.90;;;8.93;;
2598;SDS011;1309;48.810;8.954;2023-04-06T05:25:27;13.53;;;8.90;;
2598;SDS011;1309;48.810;8.954;2023-04-06T05:28:02;14.10;;;8.50;;
2598;SDS011;1309;48.810;8.954;2023-04-06T05:30:34;16.27;;;9.27;;
2598;SDS011;1309;48.810;8.954;2023-04-06T05:33:03;18.43;;;9.10;;
2598;SDS011;1309;48.810;8.954;2023-04-06T05:35:33;11.93;;;8.50;;
2598;SDS011;1309;48.810;8.954;2023-04-06T05:38:07;13.97;;;8.53;;
2598;SDS011;1309;48.810;8.954;2023-04-06T05:40:37;17.03;;;9.27;;
2598;SDS011;1309;48.810;8.954;2023-04-06T05:43:09;12.50;;;8.53;;
2598;SDS011;1309;48.810;8.954;2023-04-06T05:45:37;12.37;;;8.00;;
2598;SDS011;1309;48.810;8.954;2023-04-06T05:48:06;14.90;;;7.57;;
2598;SDS011;1309;48.810;8.954;2023-04-06T05:50:34;14.53;;;7.57;;
2598;SDS011;1309;48.810;8.954;2023-04-06T05:53:07;12.10;;;8.27;;
2598;SDS011;1309;48.810;8.954;2023-04-06T05:55:44;12.13;;;8.50;;
2598;SDS011;1309;48.810;8.954;2023-04-06T05:58:14;14.23;;;9.13;;
2598;SDS011;1309;48.810;8.954;2023-04-06T06:00:44;14.97;;;9.80;;
2598;SDS011;1309;48.810;8.954;2023-04-06T06:03:13;12.43;;;7.90;;
2598;SDS011;1309;48.810;8.954;2023-04-06T06:05:48;15.07;;;9.13;;
2598;SDS011;1309;48.810;8.954;2023-04-06T06:08:20;13.77;;;8.53;;
2598;SDS011;1309;48.810;8.954;2023-04-06T06:10:49;12.10;;;8.33;;
2598;SDS011;1309;48.810;8.954;2023-04-06T06:13:19;15.10;;;8.90;;
2598;SDS011;1309;48.810;8.954;2023-04-06T06:15:50;14.30;;;7.70;;
2598;SDS011;1309;48.810;8.954;2023-04-06T06:18:21;14.53;;;7.97;;
2598;SDS011;1309;48.810;8.954;2023-04-06T06:20:49;17.00;;;9.13;;
2598;SDS011;1309;48.810;8.954;2023-04-06T06:23:17;16.07;;;9.33;;
2598;SDS011;1309;48.810;8.954;2023-04-06T06:25:59;10.87;;;7.00;;
2598;SDS011;1309;48.810;8.954;2023-04-06T06:28:28;14.67;;;8.70;;
2598;SDS011;1309;48.810;8.954;2023-04-06T06:30:56;13.17;;;8.07;;
2598;SDS011;1309;48.810;8.954;2023-04-06T06:33:26;16.27;;;9.27;;
2598;SDS011;1309;48.810;8.954;2023-04-06T06:35:57;19.00;;;9.70;;
2598;SDS011;1309;48.810;8.954;2023-04-06T06:38:26;13.60;;;8.63;;
2598;SDS011;1309;48.810;8.954;2023-04-06T06:40:54;14.83;;;8.20;;
2598;SDS011;1309;48.810;8.954;2023-04-06T06:43:34;14.27;;;7.77;;
2598;SDS011;1309;48.810;8.954;2023-04-06T06:46:05;23.30;;;8.73;;
2598;SDS011;1309;48.810;8.954;2023-04-06T06:48:39;14.10;;;8.13;;
2598;SDS011;1309;48.810;8.954;2023-04-06T06:51:11;14.80;;;7.50;;
2598;SDS011;1309;48.810;8.954;2023-04-06T06:53:39;11.70;;;8.20;;
2598;SDS011;1309;48.810;8.954;2023-04-06T06:56:26;11.93;;;8.37;;
2598;SDS011;1309;48.810;8.954;2023-04-06T06:59:03;15.77;;;8.67;;
2598;SDS011;1309;48.810;8.954;2023-04-06T07:01:34;10.97;;;7.37;;
2598;SDS011;1309;48.810;8.954;2023-04-06T07:04:05;13.07;;;8.80;;
2598;SDS011;1309;48.810;8.954;2023-04-06T07:06:38;17.00;;;9.70;;
2598;SDS011;1309;48.810;8.954;2023-04-06T07:09:09;15.83;;;10.00;;
2598;SDS011;1309;48.810;8.954;2023-04-06T07:11:38;11.87;;;7.33;;
2598;SDS011;1309;48.810;8.954;2023-04-06T07:14:15;13.33;;;8.43;;
2598;SDS011;1309;48.810;8.954;2023-04-06T07:16:46;10.80;;;7.77;;
2598;SDS011;1309;48.810;8.954;2023-04-06T07:19:25;10.33;;;8.27;;
2598;SDS011;1309;48.810;8.954;2023-04-06T07:21:56;14.63;;;9.47;;
2598;SDS011;1309;48.810;8.954;2023-04-06T07:24:26;17.10;;;8.03;;
2598;SDS011;1309;48.810;8.954;2023-04-06T07:26:58;12.30;;;8.93;;
2598;SDS011;1309;48.810;8.954;2023-04-06T07:29:29;12.87;;;7.63;;
2598;SDS011;1309;48.810;8.954;2023-04-06T07:32:00;10.30;;;7.60;;
2598;SDS011;1309;48.810;8.954;2023-04-06T07:34:31;20.90;;;9.23;;
2598;SDS011;1309;48.810;8.954;2023-04-06T07:37:09;15.13;;;8.60;;
2598;SDS011;1309;48.810;8.954;2023-04-06T07:39:44;13.93;;;9.27;;
2598;SDS011;1309;48.810;8.954;2023-04-06T07:42:17;15.70;;;10.60;;
2598;SDS011;1309;48.810;8.954;2023-04-06T07:44:48;18.40;;;9.30;;
2598;SDS011;1309;48.810;8.954;2023-04-06T07:47:19;11.37;;;7.83;;
2598;SDS011;1309;48.810;8.954;2023-04-06T07:49:48;15.87;;;9.37;;
2598;SDS011;1309;48.810;8.954;2023-04-06T07:52:21;17.33;;;9.10;;
2598;SDS011;1309;48.810;8.954;2023-04-06T07:55:01;16.20;;;9.00;;
2598;SDS011;1309;48.810;8.954;2023-04-06T07:57:29;14.50;;;9.80;;
2598;SDS011;1309;48.810;8.954;2023-04-06T07:59:59;16.20;;;9.50;;
2598;SDS011;1309;48.810;8.954;2023-04-06T08:02:33;16.33;;;9.53;;
2598;SDS011;1309;48.810;8.954;2023-04-06T08:05:02;14.93;;;9.40;;
2598;SDS011;1309;48.810;8.954;2023-04-06T08:07:31;14.00;;;8.63;;
2598;SDS011;1309;48.810;8.954;2023-04-06T08:09:59;14.73;;;8.57;;
2598;SDS011;1309;48.810;8.954;2023-04-06T08:12:27;14.67;;;9.30;;
2598;SDS011;1309;48.810;8.954;2023-04-06T08:14:56;17.47;;;8.90;;
2598;SDS011;1309;48.810;8.954;2023-04-06T08:17:29;16.53;;;9.67;;
2598;SDS011;1309;48.810;8.954;2023-04-06T08:19:58;25.97;;;8.80;;
2598;SDS011;1309;48.810;8.954;2023-04-06T08:22:27;13.30;;;7.97;;
2598;SDS011;1309;48.810;8.954;2023-04-06T08:25:10;15.93;;;7.70;;
2598;SDS011;1309;48.810;8.954;2023-04-06T08:27:46;11.23;;;8.40;;
2598;SDS011;1309;48.810;8.954;2023-04-06T08:30:22;14.40;;;8.47;;
2598;SDS011;1309;48.810;8.954;2023-04-06T08:33:02;12.00;;;7.90;;
2598;SDS011;1309;48.810;8.954;2023-04-06T08:35:32;11.77;;;8.00;;
2598;SDS011;1309;48.810;8.954;2023-04-06T08:38:03;17.90;;;8.37;;
2598;SDS011;1309;48.810;8.954;2023-04-06T08:40:40;12.80;;;7.63;;
2598;SDS011;1309;48.810;8.954;2023-04-06T08:43:16;12.23;;;8.40;;
2598;SDS011;1309;48.810;8.954;2023-04-06T08:45:46;15.53;;;7.70;;
2598;SDS011;1309;48.810;8.954;2023-04-06T08:48:19;11.93;;;7.70;;
2598;SDS011;1309;48.810;8.954;2023-04-06T08:50:52;12.37;;;7.87;;
2598;SDS011;1309;48.810;8.954;2023-04-06T08:53:20;14.00;;;7.37;;
2598;SDS011;1309;48.810;8.954;2023-04-06T08:55:49;13.60;;;8.60;;
2598;SDS011;1309;48.810;8.954;2023-04-06T08:58:19;13.17;;;6.70;;
2598;SDS011;1309;48.810;8.954;2023-04-06T09:01:04;12.57;;;7.03;;
2598;SDS011;1309;48.810;8.954;2023-04-06T09:03:36;14.80;;;7.80;;
2598;SDS011;1309;48.810;8.954;2023-04-06T09:06:08;10.93;;;6.70;;
2598;SDS011;1309;48.810;8.954;2023-04-06T09:08:38;13.03;;;8.43;;
2598;SDS011;1309;48.810;8.954;2023-04-06T09:11:07;10.63;;;7.13;;
2598;SDS011;1309;48.810;8.954;2023-04-06T09:13:46;12.20;;;6.97;;
2598;SDS011;1309;48.810;8.954;2023-04-06T09:16:38;12.23;;;7.13;;
2598;SDS011;1309;48.810;8.954;2023-04-06T09:19:08;11.23;;;7.07;;
2598;SDS011;1309;48.810;8.954;2023-04-06T09:21:39;14.60;;;8.40;;
2598;SDS011;1309;48.810;8.954;2023-04-06T09:24:13;12.60;;;7.20;;
2598;SDS011;1309;48.810;8.954;2023-04-06T09:26:44;13.83;;;7.30;;
2598;SDS011;1309;48.810;8.954;2023-04-06T09:29:23;13.97;;;8.23;;
2598;SDS011;1309;48.810;8.954;2023-04-06T09:32:01;11.20;;;7.33;;
2598;SDS011;1309;48.810;8.954;2023-04-06T09:34:34;16.53;;;8.10;;
2598;SDS011;1309;48.810;8.954;2023-04-06T09:40:01;10.33;;;7.30;;
2598;SDS011;1309;48.810;8.954;2023-04-06T09:42:33;12.50;;;8.13;;
2598;SDS011;1309;48.810;8.954;2023-04-06T09:45:24;16.30;;;8.00;;
2598;SDS011;1309;48.810;8.954;2023-04-06T09:48:19;12.47;;;7.53;;
2598;SDS011;1309;48.810;8.954;2023-04-06T09:50:56;13.70;;;8.70;;
2598;SDS011;1309;48.810;8.954;2023-04-06T09:53:27;17.20;;;9.10;;
2598;SDS011;1309;48.810;8.954;2023-04-06T09:56:02;15.40;;;8.63;;
2598;SDS011;1309;48.810;8.954;2023-04-06T09:58:35;13.77;;;8.40;;
2598;SDS011;1309;48.810;8.954;2023-04-06T10:01:06;9.17;;;5.80;;
2598;SDS011;1309;48.810;8.954;2023-04-06T10:03:38;14.30;;;8.60;;
2598;SDS011;1309;48.810;8.954;2023-04-06T10:06:17;13.80;;;7.70;;
2598;SDS011;1309;48.810;8.954;2023-04-06T10:08:49;15.00;;;7.77;;
2598;SDS011;1309;48.810;8.954;2023-04-06T10:11:20;17.47;;;8.77;;
2598;SDS011;1309;48.810;8.954;2023-04-06T10:13:49;15.03;;;8.60;;
2598;SDS011;1309;48.810;8.954;2023-04-06T10:16:19;13.40;;;9.20;;
2598;SDS011;1309;48.810;8.954;2023-04-06T10:18:49;15.17;;;8.60;;
2598;SDS011;1309;48.810;8.954;2023-04-06T10:21:23;14.00;;;8.40;;
2598;SDS011;1309;48.810;8.954;2023-04-06T10:24:01;13.77;;;8.57;;
2598;SDS011;1309;48.810;8.954;2023-04-06T10:26:32;15.47;;;8.97;;
2598;SDS011;1309;48.810;8.954;2023-04-06T10:29:02;14.13;;;7.80;;
2598;SDS011;1309;48.810;8.954;2023-04-06T10:31:42;20.33;;;9.17;;
2598;SDS011;1309;48.810;8.954;2023-04-06T10:34:12;15.30;;;8.83;;
2598;SDS011;1309;48.810;8.954;2023-04-06T10:36:47;11.87;;;7.23;;
2598;SDS011;1309;48.810;8.954;2023-04-06T10:39:24;14.03;;;7.27;;
2598;SDS011;1309;48.810;8.954;2023-04-06T10:41:53;14.73;;;8.70;;
2598;SDS011;1309;48.810;8.954;2023-04-06T10:44:21;13.03;;;8.37;;
2598;SDS011;1309;48.810;8.954;2023-04-06T10:46:54;12.70;;;7.27;;
2598;SDS011;1309;48.810;8.954;2023-04-06T10:49:23;14.00;;;8.93;;
2598;SDS011;1309;48.810;8.954;2023-04-06T10:51:58;13.23;;;8.52;;
2598;SDS011;1309;48.810;8.954;2023-04-06T10:54:26;13.80;;;8.90;;
2598;SDS011;1309;48.810;8.954;2023-04-06T10:56:59;10.70;;;7.13;;
2598;SDS011;1309;48.810;8.954;2023-04-06T10:59:28;13.07;;;6.97;;
2598;SDS011;1309;48.810;8.954;2023-04-06T11:01:56;15.20;;;8.50;;
2598;SDS011;1309;48.810;8.954;2023-04-06T11:04:25;14.80;;;8.37;;
2598;SDS011;1309;48.810;8.954;2023-04-06T11:06:54;15.50;;;8.70;;
2598;SDS011;1309;48.810;8.954;2023-04-06T11:09:27;13.70;;;8.10;;
2598;SDS011;1309;48.810;8.954;2023-04-06T11:11:57;14.73;;;8.20;;
2598;SDS011;1309;48.810;8.954;2023-04-06T11:14:27;14.53;;;8.13;;
2598;SDS011;1309;48.810;8.954;2023-04-06T11:16:57;14.80;;;8.00;;
2598;SDS011;1309;48.810;8.954;2023-04-06T11:19:26;16.53;;;7.60;;
2598;SDS011;1309;48.810;8.954;2023-04-06T11:21:57;13.70;;;7.23;;
2598;SDS011;1309;48.810;8.954;2023-04-06T11:24:35;12.00;;;6.57;;
2598;SDS011;1309;48.810;8.954;2023-04-06T11:27:04;15.73;;;8.13;;
2598;SDS011;1309;48.810;8.954;2023-04-06T11:29:32;16.40;;;9.23;;
2598;SDS011;1309;48.810;8.954;2023-04-06T11:32:03;15.40;;;8.47;;
2598;SDS011;1309;48.810;8.954;2023-04-06T11:34:34;10.77;;;7.20;;
2598;SDS011;1309;48.810;8.954;2023-04-06T11:37:06;11.33;;;7.77;;
2598;SDS011;1309;48.810;8.954;2023-04-06T11:39:58;13.27;;;7.30;;
2598;SDS011;1309;48.810;8.954;2023-04-06T11:42:28;13.20;;;7.50;;
2598;SDS011;1309;48.810;8.954;2023-04-06T11:44:59;11.73;;;7.40;;
2598;SDS011;1309;48.810;8.954;2023-04-06T11:47:29;11.90;;;7.30;;
2598;SDS011;1309;48.810;8.954;2023-04-06T11:50:05;11.70;;;7.37;;
2598;SDS011;1309;48.810;8.954;2023-04-06T11:52:35;12.30;;;6.63;;
2598;SDS011;1309;48.810;8.954;2023-04-06T11:55:13;11.77;;;6.00;;
2598;SDS011;1309;48.810;8.954;2023-04-06T11:57:45;9.80;;;6.03;;
2598;SDS011;1309;48.810;8.954;2023-04-06T12:00:23;14.10;;;7.33;;
2598;SDS011;1309;48.810;8.954;2023-04-06T12:02:52;11.70;;;6.60;;
2598;SDS011;1309;48.810;8.954;2023-04-06T12:05:23;9.20;;;5.97;;
2598;SDS011;1309;48.810;8.954;2023-04-06T12:07:52;8.73;;;5.90;;
2598;SDS011;1309;48.810;8.954;2023-04-06T12:10:36;9.27;;;5.47;;
2598;SDS011;1309;48.810;8.954;2023-04-06T12:13:08;9.40;;;5.47;;
2598;SDS011;1309;48.810;8.954;2023-04-06T12:15:47;7.10;;;5.23;;
2598;SDS011;1309;48.810;8.954;2023-04-06T12:18:18;7.67;;;4.83;;
2598;SDS011;1309;48.810;8.954;2023-04-06T12:20:49;9.20;;;5.87;;
2598;SDS011;1309;48.810;8.954;2023-04-06T12:23:17;7.03;;;5.50;;
2598;SDS011;1309;48.810;8.954;2023-04-06T12:25:48;12.27;;;6.57;;
2598;SDS011;1309;48.810;8.954;2023-04-06T12:28:21;8.83;;;5.60;;
2598;SDS011;1309;48.810;8.954;2023-04-06T12:30:55;10.83;;;5.97;;
2598;SDS011;1309;48.810;8.954;2023-04-06T12:33:24;9.23;;;5.80;;
2598;SDS011;1309;48.810;8.954;2023-04-06T12:35:55;7.00;;;5.67;;
2598;SDS011;1309;48.810;8.954;2023-04-06T12:38:26;9.10;;;5.90;;
2598;SDS011;1309;48.810;8.954;2023-04-06T12:40:58;8.40;;;5.37;;
2598;SDS011;1309;48.810;8.954;2023-04-06T12:43:30;10.20;;;5.87;;
2598;SDS011;1309;48.810;8.954;2023-04-06T12:45:59;14.90;;;6.50;;
2598;SDS011;1309;48.810;8.954;2023-04-06T12:48:27;12.20;;;7.53;;
2598;SDS011;1309;48.810;8.954;2023-04-06T12:50:57;11.90;;;6.57;;
2598;SDS011;1309;48.810;8.954;2023-04-06T12:53:27;9.10;;;5.33;;
2598;SDS011;1309;48.810;8.954;2023-04-06T12:55:58;10.17;;;5.40;;
2598;SDS011;1309;48.810;8.954;2023-04-06T12:58:28;7.20;;;5.33;;
2598;SDS011;1309;48.810;8.954;2023-04-06T13:00:57;7.90;;;5.13;;
2598;SDS011;1309;48.810;8.954;2023-04-06T13:03:29;7.27;;;5.73;;
2598;SDS011;1309;48.810;8.954;2023-04-06T13:05:58;9.93;;;5.53;;
2598;SDS011;1309;48.810;8.954;2023-04-06T13:08:27;8.27;;;5.43;;
2598;SDS011;1309;48.810;8.954;2023-04-06T13:10:55;7.50;;;5.63;;
2598;SDS011;1309;48.810;8.954;2023-04-06T13:13:26;12.03;;;6.97;;
2598;SDS011;1309;48.810;8.954;2023-04-06T13:16:03;9.30;;;5.30;;
2598;SDS011;1309;48.810;8.954;2023-04-06T13:18:36;9.10;;;6.23;;
2598;SDS011;1309;48.810;8.954;2023-04-06T13:21:12;7.67;;;5.60;;
2598;SDS011;1309;48.810;8.954;2023-04-06T13:23:42;8.67;;;6.30;;
2598;SDS011;1309;48.810;8.954;2023-04-06T13:26:20;8.83;;;5.37;;
2598;SDS011;1309;48.810;8.954;2023-04-06T13:28:50;9.43;;;5.60;;
2598;SDS011;1309;48.810;8.954;2023-04-06T13:31:22;10.63;;;7.13;;
2598;SDS011;1309;48.810;8.954;2023-04-06T13:33:51;10.13;;;5.60;;
2598;SDS011;1309;48.810;8.954;2023-04-06T13:36:36;7.37;;;5.57;;
2598;SDS011;1309;48.810;8.954;2023-04-06T13:39:10;8.53;;;5.70;;
2598;SDS011;1309;48.810;8.954;2023-04-06T13:41:44;9.10;;;5.80;;
2598;SDS011;1309;48.810;8.954;2023-04-06T13:44:14;9.30;;;6.37;;
2598;SDS011;1309;48.810;8.954;2023-04-06T13:46:48;8.83;;;6.33;;
2598;SDS011;1309;48.810;8.954;2023-04-06T13:49:17;7.80;;;5.90;;
2598;SDS011;1309;48.810;8.954;2023-04-06T13:51:45;9.97;;;5.53;;
2598;SDS011;1309;48.810;8.954;2023-04-06T13:54:16;11.40;;;6.20;;
2598;SDS011;1309;48.810;8.954;2023-04-06T13:56:47;9.97;;;6.20;;
2598;SDS011;1309;48.810;8.954;2023-04-06T13:59:22;8.43;;;5.30;;
2598;SDS011;1309;48.810;8.954;2023-04-06T14:01:55;6.93;;;5.27;;
2598;SDS011;1309;48.810;8.954;2023-04-06T14:04:23;10.97;;;6.37;;
2598;SDS011;1309;48.810;8.954;2023-04-06T14:06:52;10.43;;;6.47;;
2598;SDS011;1309;48.810;8.954;2023-04-06T14:09:20;10.37;;;6.33;;
2598;SDS011;1309;48.810;8.954;2023-04-06T14:11:53;7.60;;;5.73;;
2598;SDS011;1309;48.810;8.954;2023-04-06T14:14:32;9.63;;;5.53;;
2598;SDS011;1309;48.810;8.954;2023-04-06T14:17:10;9.50;;;5.13;;
2598;SDS011;1309;48.810;8.954;2023-04-06T14:19:40;9.90;;;6.00;;
2598;SDS011;1309;48.810;8.954;2023-04-06T14:22:09;9.17;;;5.60;;
2598;SDS011;1309;48.810;8.954;2023-04-06T14:24:37;10.10;;;5.97;;
2598;SDS011;1309;48.810;8.954;2023-04-06T14:27:05;11.40;;;8.33;;
2598;SDS011;1309;48.810;8.954;2023-04-06T14:29:37;9.90;;;7.23;;
2598;SDS011;1309;48.810;8.954;2023-04-06T14:32:05;14.63;;;7.33;;
2598;SDS011;1309;48.810;8.954;2023-04-06T14:34:36;12.93;;;7.80;;
2598;SDS011;1309;48.810;8.954;2023-04-06T14:37:04;12.97;;;8.23;;
2598;SDS011;1309;48.810;8.954;2023-04-06T14:39:35;12.40;;;8.50;;
2598;SDS011;1309;48.810;8.954;2023-04-06T14:42:09;12.20;;;8.10;;
2598;SDS011;1309;48.810;8.954;2023-04-06T14:44:42;14.90;;;8.87;;
2598;SDS011;1309;48.810;8.954;2023-04-06T14:47:12;15.77;;;8.30;;
2598;SDS011;1309;48.810;8.954;2023-04-06T14:49:42;13.83;;;7.47;;
2598;SDS011;1309;48.810;8.954;2023-04-06T14:52:11;15.13;;;8.73;;
2598;SDS011;1309;48.810;8.954;2023-04-06T14:54:41;13.80;;;7.67;;
2598;SDS011;1309;48.810;8.954;2023-04-06T14:57:14;11.07;;;8.00;;
2598;SDS011;1309;48.810;8.954;2023-04-06T14:59:54;11.43;;;7.73;;
2598;SDS011;1309;48.810;8.954;2023-04-06T15:02:22;13.90;;;7.23;;
2598;SDS011;1309;48.810;8.954;2023-04-06T15:04:52;11.63;;;8.10;;
2598;SDS011;1309;48.810;8.954;2023-04-06T15:07:20;14.20;;;8.87;;
2598;SDS011;1309;48.810;8.954;2023-04-06T15:09:49;12.60;;;8.20;;
2598;SDS011;1309;48.810;8.954;2023-04-06T15:12:17;12.27;;;8.07;;
2598;SDS011;1309;48.810;8.954;2023-04-06T15:14:46;11.27;;;7.80;;
2598;SDS011;1309;48.810;8.954;2023-04-06T15:17:16;13.73;;;8.00;;
2598;SDS011;1309;48.810;8.954;2023-04-06T15:19:46;13.37;;;8.30;;
2598;SDS011;1309;48.810;8.954;2023-04-06T15:22:24;14.00;;;8.13;;
2598;SDS011;1309;48.810;8.954;2023-04-06T15:24:54;14.17;;;7.77;;
2598;SDS011;1309;48.810;8.954;2023-04-06T15:27:23;12.30;;;8.40;;
2598;SDS011;1309;48.810;8.954;2023-04-06T15:29:51;14.50;;;8.87;;
2598;SDS011;1309;48.810;8.954;2023-04-06T15:32:26;15.50;;;8.97;;
2598;SDS011;1309;48.810;8.954;2023-04-06T15:34:55;14.87;;;8.63;;